Sandpoint, ID (83864)

12:00 PM PST on November 28, 2014 (GMT -0800)
KIDSANDP2 | Change Station
CLOSE
Current Station
Personal Weather Station
Location: Sandpoint, ID
Elevation: 2111 ft
Nearby Weather Stations

Elev 2111 ft 48.28 °N, 116.56 °W | Updated 7 seconds ago

Overcast
Overcast
52.7 °F
Feels Like 52.7 °F
N
1.0
Wind Variable Wind from South
Gusts 1.0 mph

Today
High -- | Low -- °F
--% Chance of Precip.
Yesterday
High -- | Low -- °F
Precip. -- in
7:12 AM 3:55 PM
Waxing Crescent, 43% visible
Pressure 29.39 in
Visibility 10.0 miles
Clouds Overcast 3800 ft
Dew Point 44 °F
Humidity 73%
Rainfall 0.00 in
Snow Depth Not available.
UV 0 out of 12
Pollen .10 out of 12
Air Quality Not available.
Flu Activity Not available.
METAR KSZT 281955Z AUTO 22013G22KT 188V248 10SM OVC038 11/05 A2939 RMK AO2

More Conditions Fewer Conditions

Pressure 29.39 in
Visibility 10.0 miles
Clouds Overcast 3800 ft
Dew Point 44 °F
Humidity 73%
Rainfall 0.00 in
Snow Depth Not available.
UV 0 out of 12
Pollen .10 out of 12
Air Quality Not available.
Flu Activity Not available.
METAR KSZT 281955Z AUTO 22013G22KT 188V248 10SM OVC038 11/05 A2939 RMK AO2

More Conditions Fewer Conditions

10-Day Weather Forecast

Almanac

Astronomy

Nov. 28, 2014 Rise Set
Actual Time
Civil Twilight
Nautical Twilight
Astronomical Twilight
Moon
Length of Visible Light
Length of Day
Tomorrow will be .
, % of the Moon is Illuminated

Today's Extremes

State Highs State Lows

Community

WunderPhotos

Upload Photos

1,774,273 photos uploaded!

WunderBlogs® & News

Nearby

Air Quality

  Air Quality AQ Index Pollutant
Not available.

Snow Depth

Station Depth Elevation

Earthquake Activity

City Distance Mag. Time & Date
Minimum magnitude displayed is 2.5.

Coastal Water Temperatures

Place Temperature

Nearby Weather Stations